createdAt,value
2023-02-05T00:02:17.592Z,2.95
2023-02-05T00:04:48.883Z,2.65
2023-02-05T00:07:18.980Z,3.08
2023-02-05T00:09:50.675Z,3.05
2023-02-05T00:12:21.839Z,2.85
2023-02-05T00:14:52.538Z,2.33
2023-02-05T00:17:21.738Z,3.13
2023-02-05T00:19:50.981Z,4.70
2023-02-05T00:22:20.155Z,2.38
2023-02-05T00:24:49.391Z,2.30
2023-02-05T00:27:18.606Z,3.35
2023-02-05T00:29:47.772Z,2.00
2023-02-05T00:32:18.390Z,2.22
2023-02-05T00:34:47.846Z,2.20
2023-02-05T00:37:17.159Z,2.67
2023-02-05T00:39:46.393Z,2.38
2023-02-05T00:42:15.601Z,2.85
2023-02-05T00:44:44.862Z,2.17
2023-02-05T00:47:14.211Z,3.13
2023-02-05T00:49:45.002Z,1.83
2023-02-05T00:52:14.358Z,2.08
2023-02-05T00:54:44.606Z,2.45
2023-02-05T00:57:16.169Z,1.73
2023-02-05T00:59:45.559Z,1.75
2023-02-05T01:02:14.739Z,1.90
2023-02-05T01:04:46.528Z,1.92
2023-02-05T01:07:15.720Z,1.40
2023-02-05T01:09:45.067Z,1.58
2023-02-05T01:12:15.483Z,2.15
2023-02-05T01:14:45.093Z,1.83
2023-02-05T01:17:14.378Z,1.75
2023-02-05T01:19:43.683Z,2.08
2023-02-05T01:22:14.363Z,1.40
2023-02-05T01:24:43.592Z,2.70
2023-02-05T01:27:12.963Z,4.00
2023-02-05T01:29:42.288Z,2.13
2023-02-05T01:32:11.515Z,1.70
2023-02-05T01:34:40.795Z,1.60
2023-02-05T01:37:10.081Z,1.73
2023-02-05T01:39:40.649Z,1.60
2023-02-05T01:42:19.330Z,1.30
2023-02-05T01:45:21.415Z,1.33
2023-02-05T01:47:52.585Z,1.60
2023-02-05T01:50:31.028Z,1.38
2023-02-05T01:53:04.144Z,2.08
2023-02-05T01:55:36.241Z,2.83
2023-02-05T01:58:05.822Z,2.45
2023-02-05T02:00:35.049Z,1.60
2023-02-05T02:03:05.190Z,2.50
2023-02-05T02:05:34.662Z,3.45
2023-02-05T02:08:04.053Z,1.27
2023-02-05T02:10:36.493Z,1.48
2023-02-05T02:13:05.928Z,1.50
2023-02-05T02:15:35.621Z,3.00
2023-02-05T02:18:20.897Z,2.33
2023-02-05T02:20:54.388Z,3.53
2023-02-05T02:23:29.129Z,1.15
2023-02-05T02:26:25.025Z,1.48
2023-02-05T02:29:01.547Z,1.63
2023-02-05T02:31:33.506Z,2.05
2023-02-05T02:34:09.882Z,1.15
2023-02-05T02:36:44.031Z,1.20
2023-02-05T02:39:19.848Z,1.20
2023-02-05T02:41:54.324Z,1.50
2023-02-05T02:44:35.019Z,1.20
2023-02-05T02:47:12.509Z,1.77
2023-02-05T02:49:46.513Z,0.95
2023-02-05T02:52:18.618Z,1.35
2023-02-05T02:54:50.116Z,1.17
2023-02-05T02:57:24.938Z,1.60
2023-02-05T02:59:59.870Z,1.08
2023-02-05T03:02:32.615Z,1.30
2023-02-05T03:05:05.539Z,1.25
2023-02-05T03:07:38.430Z,1.00
2023-02-05T03:10:12.935Z,1.17
2023-02-05T03:12:42.208Z,1.85
2023-02-05T03:15:14.101Z,1.15
2023-02-05T03:17:44.290Z,1.20
2023-02-05T03:20:20.055Z,1.10
2023-02-05T03:22:49.415Z,1.20
2023-02-05T03:25:22.434Z,1.05
2023-02-05T03:27:56.025Z,1.48
2023-02-05T03:30:34.857Z,1.10
2023-02-05T03:33:13.896Z,0.95
2023-02-05T03:35:47.618Z,1.17
2023-02-05T03:38:40.235Z,1.40
2023-02-05T03:41:16.602Z,0.93
2023-02-05T03:43:58.076Z,1.45
2023-02-05T03:46:35.957Z,1.08
2023-02-05T03:49:13.549Z,2.70
2023-02-05T03:51:49.548Z,1.00
2023-02-05T03:54:24.996Z,0.80
2023-02-05T03:57:01.311Z,0.90
2023-02-05T03:59:33.050Z,1.00
2023-02-05T04:02:05.341Z,0.80
2023-02-05T04:04:40.015Z,0.80
2023-02-05T04:07:10.955Z,1.13
2023-02-05T04:09:41.135Z,0.80
2023-02-05T04:12:12.001Z,1.02
2023-02-05T04:14:42.366Z,1.00
2023-02-05T04:17:14.280Z,1.42
2023-02-05T04:19:44.512Z,0.95
2023-02-05T04:22:15.695Z,1.20
2023-02-05T04:24:47.758Z,1.17
2023-02-05T04:27:17.521Z,0.98
2023-02-05T04:29:46.746Z,0.98
2023-02-05T04:32:17.743Z,1.42
2023-02-05T04:34:47.986Z,0.90
2023-02-05T04:37:17.664Z,0.80
2023-02-05T04:39:48.227Z,0.85
2023-02-05T04:42:17.407Z,0.98
2023-02-05T04:44:46.628Z,0.90
2023-02-05T04:47:17.256Z,0.85
2023-02-05T04:49:46.419Z,1.10
2023-02-05T04:52:15.593Z,0.90
2023-02-05T04:54:44.885Z,0.90
2023-02-05T04:57:14.029Z,1.10
2023-02-05T04:59:43.182Z,0.80
2023-02-05T05:02:12.440Z,1.20
2023-02-05T05:04:43.389Z,1.30
2023-02-05T05:07:12.686Z,0.90
2023-02-05T05:09:41.953Z,1.00
2023-02-05T05:12:11.065Z,1.35
2023-02-05T05:14:40.227Z,0.90
2023-02-05T05:17:09.372Z,1.10
2023-02-05T05:19:38.724Z,1.08
2023-02-05T05:22:09.265Z,0.90
2023-02-05T05:24:38.462Z,0.85
2023-02-05T05:27:07.736Z,0.88
2023-02-05T05:29:37.278Z,1.10
2023-02-05T05:32:06.997Z,1.05
2023-02-05T05:34:36.221Z,0.77
2023-02-05T05:37:05.404Z,1.23
2023-02-05T05:39:53.277Z,0.98
2023-02-05T05:45:09.231Z,1.10
2023-02-05T05:47:38.367Z,1.20
2023-02-05T05:50:08.706Z,0.70
2023-02-05T05:52:37.879Z,1.13
2023-02-05T05:55:09.178Z,1.13
2023-02-05T05:57:38.327Z,1.00
2023-02-05T06:00:08.294Z,1.13
2023-02-05T06:02:44.427Z,1.60
2023-02-05T06:05:13.842Z,1.00
2023-02-05T06:07:43.178Z,1.08
2023-02-05T06:10:13.833Z,0.80
2023-02-05T06:12:42.995Z,0.98
2023-02-05T06:15:12.837Z,1.20
2023-02-05T06:17:42.152Z,0.98
2023-02-05T06:20:13.017Z,1.13
2023-02-05T06:22:42.525Z,1.15
2023-02-05T06:25:11.780Z,1.30
2023-02-05T06:27:42.460Z,1.42
2023-02-05T06:30:13.746Z,1.40
2023-02-05T06:32:43.475Z,2.03
2023-02-05T06:35:13.362Z,1.20
2023-02-05T06:37:47.553Z,2.45
2023-02-05T06:40:22.546Z,1.30
2023-02-05T06:42:54.538Z,1.30
2023-02-05T06:45:24.695Z,1.10
2023-02-05T06:47:56.523Z,1.13
2023-02-05T06:50:27.132Z,2.55
2023-02-05T06:52:56.828Z,3.17
2023-02-05T06:55:26.787Z,3.65
2023-02-05T06:57:57.802Z,2.45
2023-02-05T07:00:27.588Z,2.38
2023-02-05T07:02:57.573Z,3.22
2023-02-05T07:05:27.425Z,4.18
2023-02-05T07:07:57.292Z,6.00
2023-02-05T07:10:27.891Z,3.85
2023-02-05T07:12:59.081Z,5.20
2023-02-05T07:15:28.613Z,6.80
2023-02-05T07:17:58.867Z,5.25
2023-02-05T07:20:28.522Z,2.67
2023-02-05T07:22:58.103Z,2.75
2023-02-05T07:25:28.665Z,4.00
2023-02-05T07:28:00.191Z,3.63
2023-02-05T07:30:30.499Z,5.35
2023-02-05T07:33:03.752Z,3.90
2023-02-05T07:35:35.754Z,3.65
2023-02-05T07:38:05.659Z,2.53
2023-02-05T07:40:35.149Z,3.88
2023-02-05T07:43:06.173Z,2.63
2023-02-05T07:45:35.935Z,1.83
2023-02-05T07:48:05.805Z,4.25
2023-02-05T07:50:35.324Z,2.53
2023-02-05T07:53:04.792Z,2.58
2023-02-05T07:55:36.204Z,4.57
2023-02-05T07:58:07.686Z,3.83
2023-02-05T08:00:37.825Z,2.33
2023-02-05T08:03:07.892Z,3.83
2023-02-05T08:05:38.428Z,3.17
2023-02-05T08:08:09.086Z,1.20
2023-02-05T08:10:40.563Z,2.70
2023-02-05T08:13:13.345Z,3.10
2023-02-05T08:15:46.019Z,2.13
2023-02-05T08:18:15.595Z,1.77
2023-02-05T08:20:45.776Z,5.15
2023-02-05T08:23:16.242Z,3.33
2023-02-05T08:25:47.422Z,1.17
2023-02-05T08:28:18.244Z,3.90
2023-02-05T08:30:47.538Z,4.03
2023-02-05T08:33:16.916Z,2.08
2023-02-05T08:35:46.514Z,1.80
2023-02-05T08:38:15.836Z,4.93
2023-02-05T08:40:45.262Z,9.25
2023-02-05T08:43:14.712Z,14.68
2023-02-05T08:45:47.996Z,9.55
2023-02-05T08:48:18.193Z,8.45
2023-02-05T08:50:47.968Z,5.72
2023-02-05T08:53:17.370Z,7.15
2023-02-05T08:55:47.749Z,9.88
2023-02-05T08:58:17.020Z,3.83
2023-02-05T09:00:48.828Z,2.97
2023-02-05T09:03:18.059Z,3.63
2023-02-05T09:05:47.816Z,5.90
2023-02-05T09:08:18.096Z,3.05
2023-02-05T09:10:48.336Z,3.78
2023-02-05T09:13:17.881Z,8.63
2023-02-05T09:15:49.637Z,8.18
2023-02-05T09:18:19.371Z,8.40
2023-02-05T09:20:50.441Z,6.30
2023-02-05T09:23:21.139Z,6.93
2023-02-05T09:25:50.737Z,8.50
2023-02-05T09:28:20.045Z,8.15
2023-02-05T09:30:51.882Z,5.20
2023-02-05T09:33:21.367Z,3.88
2023-02-05T09:35:50.700Z,4.90
2023-02-05T09:38:20.010Z,5.90
2023-02-05T09:40:59.474Z,6.80
2023-02-05T09:43:40.308Z,3.88
2023-02-05T09:46:17.822Z,4.10
2023-02-05T09:48:50.984Z,3.45
2023-02-05T09:51:24.770Z,4.30
2023-02-05T09:53:59.347Z,3.65
2023-02-05T09:56:29.973Z,6.50
2023-02-05T09:59:00.336Z,5.80
2023-02-05T10:01:42.000Z,3.08
2023-02-05T10:04:11.664Z,4.32
2023-02-05T10:07:08.956Z,6.53
2023-02-05T10:10:01.290Z,1.65
2023-02-05T10:12:45.781Z,4.25
2023-02-05T10:15:35.450Z,9.30
2023-02-05T10:18:15.671Z,4.38
2023-02-05T10:20:57.375Z,7.55
2023-02-05T10:23:44.945Z,7.88
2023-02-05T10:26:16.017Z,8.15
2023-02-05T10:29:00.296Z,23.58
2023-02-05T10:31:37.143Z,9.15
2023-02-05T10:34:15.017Z,10.43
2023-02-05T10:36:45.469Z,10.95
2023-02-05T10:39:16.505Z,9.65
2023-02-05T10:41:48.192Z,10.88
2023-02-05T10:44:20.837Z,16.05
2023-02-05T10:46:54.184Z,6.82
2023-02-05T10:49:28.051Z,3.50
2023-02-05T10:51:57.274Z,8.20
2023-02-05T10:54:30.985Z,9.13
2023-02-05T10:57:00.965Z,10.68
2023-02-05T10:59:31.987Z,7.25
2023-02-05T11:02:06.814Z,7.85
2023-02-05T11:04:44.456Z,5.95
2023-02-05T11:07:16.086Z,8.73
2023-02-05T11:09:46.440Z,5.20
2023-02-05T11:12:22.984Z,3.00
2023-02-05T11:14:59.507Z,4.93
2023-02-05T11:17:33.283Z,6.30
2023-02-05T11:20:08.384Z,4.32
2023-02-05T11:22:39.987Z,7.68
2023-02-05T11:25:17.043Z,5.22
2023-02-05T11:27:53.818Z,7.97
2023-02-05T11:30:52.061Z,7.65
2023-02-05T11:33:31.467Z,5.55
2023-02-05T11:36:08.350Z,4.47
2023-02-05T11:38:45.923Z,5.03
2023-02-05T11:41:27.289Z,7.97
2023-02-05T11:43:57.912Z,6.13
2023-02-05T11:46:29.736Z,3.08
2023-02-05T11:49:00.988Z,3.88
2023-02-05T11:51:42.813Z,4.30
2023-02-05T11:54:21.740Z,1.98
2023-02-05T11:57:09.231Z,3.92
2023-02-05T11:59:38.813Z,2.55
2023-02-05T12:02:34.591Z,4.03
2023-02-05T12:05:18.840Z,6.50
2023-02-05T12:07:56.828Z,6.45
2023-02-05T12:10:32.702Z,10.75
2023-02-05T12:13:10.634Z,5.05
2023-02-05T12:15:46.411Z,7.03
2023-02-05T12:18:32.312Z,7.05
2023-02-05T12:21:15.795Z,6.70
2023-02-05T12:24:15.353Z,5.10
2023-02-05T12:26:47.139Z,5.82
2023-02-05T12:29:34.747Z,2.22
2023-02-05T12:32:11.962Z,4.40
2023-02-05T12:34:45.530Z,5.13
2023-02-05T12:37:30.282Z,2.95
2023-02-05T12:40:13.176Z,4.90
2023-02-05T12:42:51.856Z,6.78
2023-02-05T12:45:35.737Z,2.35
2023-02-05T12:48:19.256Z,3.33
2023-02-05T12:51:14.338Z,2.90
2023-02-05T12:54:04.459Z,2.13
2023-02-05T12:59:35.492Z,2.63
2023-02-05T13:02:15.805Z,3.30
2023-02-05T13:04:50.874Z,3.20
2023-02-05T13:07:32.223Z,3.70
2023-02-05T13:10:05.533Z,3.10
2023-02-05T13:12:40.853Z,3.80
2023-02-05T13:15:19.095Z,6.25
2023-02-05T13:17:58.457Z,2.13
2023-02-05T13:20:44.843Z,2.13
2023-02-05T13:23:33.705Z,3.30
2023-02-05T13:26:22.134Z,4.30
2023-02-05T13:28:55.813Z,4.60
2023-02-05T13:31:29.422Z,3.30
2023-02-05T13:34:04.412Z,3.35
2023-02-05T13:37:01.733Z,3.28
2023-02-05T13:40:13.308Z,5.82
2023-02-05T13:43:15.922Z,7.68
2023-02-05T13:46:32.783Z,3.63
2023-02-05T13:49:23.773Z,8.70
2023-02-05T13:52:14.567Z,6.30
2023-02-05T13:55:28.677Z,7.32
2023-02-05T13:58:21.551Z,6.53
2023-02-05T14:01:01.556Z,2.22
2023-02-05T14:03:38.536Z,3.10
2023-02-05T14:06:23.115Z,3.33
2023-02-05T14:08:59.890Z,2.78
2023-02-05T14:11:29.601Z,1.90
2023-02-05T14:14:30.819Z,3.05
2023-02-05T14:17:01.624Z,1.85
2023-02-05T14:19:59.119Z,2.72
2023-02-05T14:22:40.278Z,3.17
2023-02-05T14:25:49.966Z,2.58
2023-02-05T14:28:46.397Z,3.40
2023-02-05T14:35:02.754Z,2.53
2023-02-05T14:37:37.711Z,2.40
2023-02-05T14:40:22.762Z,1.83
2023-02-05T14:43:08.430Z,2.65
2023-02-05T14:45:46.364Z,5.72
2023-02-05T14:48:28.476Z,3.72
2023-02-05T14:51:06.773Z,3.65
2023-02-05T14:53:39.937Z,7.68
2023-02-05T14:56:24.007Z,3.70
2023-02-05T14:59:00.884Z,3.50
2023-02-05T15:01:44.803Z,5.68
2023-02-05T15:04:34.086Z,2.57
2023-02-05T15:07:12.274Z,2.58
2023-02-05T15:09:52.674Z,3.90
2023-02-05T15:15:28.633Z,3.15
2023-02-05T15:18:14.721Z,3.22
2023-02-05T15:20:48.384Z,1.45
2023-02-05T15:23:38.906Z,1.70
2023-02-05T15:26:20.612Z,4.13
2023-02-05T15:28:58.162Z,1.67
2023-02-05T15:31:33.379Z,2.38
2023-02-05T15:34:16.078Z,0.68
2023-02-05T15:36:52.533Z,1.50
2023-02-05T15:39:30.644Z,2.67
2023-02-05T15:42:05.645Z,5.68
2023-02-05T15:44:37.808Z,2.72
2023-02-05T15:47:15.352Z,1.27
2023-02-05T15:49:47.012Z,1.85
2023-02-05T15:52:22.811Z,1.70
2023-02-05T15:54:54.913Z,1.48
2023-02-05T15:57:28.813Z,3.03
2023-02-05T16:00:00.878Z,6.95
2023-02-05T16:02:31.891Z,9.98
2023-02-05T16:05:04.117Z,3.88
2023-02-05T16:07:42.202Z,6.32
2023-02-05T16:10:19.491Z,6.32
2023-02-05T16:13:05.130Z,3.05
2023-02-05T16:15:40.054Z,2.75
2023-02-05T16:18:17.786Z,2.70
2023-02-05T16:20:51.205Z,2.30
2023-02-05T16:23:23.829Z,4.57
2023-02-05T16:25:57.263Z,3.03
2023-02-05T16:28:37.365Z,1.30
2023-02-05T16:31:08.069Z,3.28
2023-02-05T16:33:42.117Z,1.98
2023-02-05T16:36:19.420Z,1.00
2023-02-05T16:38:53.382Z,1.63
2023-02-05T16:41:28.134Z,3.42
2023-02-05T16:44:03.979Z,0.95
2023-02-05T16:46:35.002Z,3.08
2023-02-05T16:49:05.986Z,1.27
2023-02-05T16:51:39.014Z,3.97
2023-02-05T16:54:29.479Z,1.38
2023-02-05T16:57:04.536Z,1.20
2023-02-05T16:59:49.458Z,1.95
2023-02-05T17:02:29.241Z,2.65
2023-02-05T17:04:59.973Z,2.70
2023-02-05T17:07:30.070Z,1.30
2023-02-05T17:10:19.946Z,2.05
2023-02-05T17:12:53.680Z,4.32
2023-02-05T17:15:40.392Z,2.58
2023-02-05T17:18:35.228Z,8.35
2023-02-05T17:21:27.620Z,4.53
2023-02-05T17:23:59.705Z,4.03
2023-02-05T17:26:31.523Z,6.47
2023-02-05T17:29:04.427Z,3.35
2023-02-05T17:31:38.711Z,3.30
2023-02-05T17:34:08.345Z,8.18
2023-02-05T17:36:37.670Z,8.77
2023-02-05T17:39:07.030Z,4.47
2023-02-05T17:41:56.506Z,2.35
2023-02-05T17:44:26.081Z,4.38
2023-02-05T17:46:56.938Z,7.38
2023-02-05T17:49:26.429Z,5.70
2023-02-05T17:51:55.695Z,4.43
2023-02-05T17:54:26.777Z,4.57
2023-02-05T17:56:58.003Z,3.50
2023-02-05T17:59:28.252Z,2.45
2023-02-05T18:01:59.363Z,5.35
2023-02-05T18:04:28.602Z,2.38
2023-02-05T18:06:58.968Z,3.72
2023-02-05T18:09:28.558Z,1.83
2023-02-05T18:11:58.005Z,1.80
2023-02-05T18:14:27.423Z,1.23
2023-02-05T18:16:56.849Z,0.77
2023-02-05T18:19:29.567Z,7.38
2023-02-05T18:21:58.884Z,7.85
2023-02-05T18:24:28.829Z,4.72
2023-02-05T18:26:58.113Z,5.25
2023-02-05T18:29:27.928Z,6.82
2023-02-05T18:31:57.322Z,3.95
2023-02-05T18:34:28.200Z,2.03
2023-02-05T18:36:57.723Z,3.75
2023-02-05T18:39:29.780Z,3.13
2023-02-05T18:41:59.420Z,1.77
2023-02-05T18:44:29.122Z,3.45
2023-02-05T18:46:58.559Z,2.42
2023-02-05T18:49:29.260Z,10.88
2023-02-05T18:51:58.751Z,7.53
2023-02-05T18:54:28.095Z,4.13
2023-02-05T18:56:57.785Z,8.63
2023-02-05T18:59:27.313Z,3.42
2023-02-05T19:01:56.643Z,13.27
2023-02-05T19:04:28.288Z,9.80
2023-02-05T19:06:59.896Z,11.95
2023-02-05T19:09:30.202Z,3.55
2023-02-05T19:11:59.840Z,2.85
2023-02-05T19:14:29.493Z,2.63
2023-02-05T19:16:58.837Z,7.30
2023-02-05T19:19:28.334Z,4.10
2023-02-05T19:22:02.326Z,6.82
2023-02-05T19:24:31.836Z,3.60
2023-02-05T19:27:01.105Z,2.38
2023-02-05T19:29:31.034Z,5.05
2023-02-05T19:32:00.557Z,3.95
2023-02-05T19:34:30.022Z,5.40
2023-02-05T19:37:00.730Z,3.92
2023-02-05T19:39:29.986Z,2.60
2023-02-05T19:41:59.378Z,3.97
2023-02-05T19:44:31.236Z,2.45
2023-02-05T19:47:01.310Z,1.33
2023-02-05T19:49:30.968Z,3.75
2023-02-05T19:52:02.215Z,6.30
2023-02-05T19:54:31.576Z,1.23
2023-02-05T19:57:01.063Z,3.08
2023-02-05T19:59:30.523Z,3.55
2023-02-05T20:01:59.843Z,3.00
2023-02-05T20:04:30.674Z,2.58
2023-02-05T20:07:01.895Z,0.90
2023-02-05T20:09:32.308Z,1.80
2023-02-05T20:12:01.772Z,2.30
2023-02-05T20:14:31.320Z,0.73
2023-02-05T20:17:00.733Z,4.28
2023-02-05T20:19:30.181Z,0.55
2023-02-05T20:22:00.838Z,2.00
2023-02-05T20:24:30.241Z,2.75
2023-02-05T20:27:01.953Z,2.10
2023-02-05T20:29:49.372Z,2.30
2023-02-05T20:32:18.667Z,1.20
2023-02-05T20:34:50.368Z,0.93
2023-02-05T20:37:21.048Z,1.00
2023-02-05T20:39:50.271Z,0.57
2023-02-05T20:42:19.605Z,0.60
2023-02-05T20:44:49.039Z,2.67
2023-02-05T20:47:18.237Z,0.93
2023-02-05T20:49:47.396Z,0.82
2023-02-05T20:52:16.536Z,0.75
2023-02-05T20:54:47.188Z,2.28
2023-02-05T20:57:18.381Z,1.05
2023-02-05T20:59:48.993Z,0.73
2023-02-05T21:02:19.517Z,0.93
2023-02-05T21:04:49.947Z,0.85
2023-02-05T21:07:25.254Z,2.28
2023-02-05T21:09:56.086Z,1.35
2023-02-05T21:12:29.518Z,0.35
2023-02-05T21:14:58.801Z,0.90
2023-02-05T21:17:27.948Z,0.57
2023-02-05T21:19:57.126Z,1.75
2023-02-05T21:22:26.399Z,0.95
2023-02-05T21:24:57.042Z,0.90
2023-02-05T21:27:27.383Z,0.65
2023-02-05T21:29:56.586Z,0.65
2023-02-05T21:32:25.814Z,0.50
2023-02-05T21:34:55.040Z,0.38
2023-02-05T21:37:24.240Z,1.90
2023-02-05T21:40:00.822Z,0.52
2023-02-05T21:42:38.303Z,1.15
2023-02-05T21:45:08.400Z,2.90
2023-02-05T21:47:38.083Z,0.95
2023-02-05T21:50:07.968Z,2.15
2023-02-05T21:52:37.454Z,0.82
2023-02-05T21:55:07.312Z,1.83
2023-02-05T21:57:37.978Z,0.57
2023-02-05T22:00:07.595Z,0.47
2023-02-05T22:02:41.115Z,0.32
2023-02-05T22:05:10.684Z,3.33
2023-02-05T22:07:39.807Z,1.75
2023-02-05T22:10:09.565Z,0.80
2023-02-05T22:12:40.231Z,0.95
2023-02-05T22:15:10.190Z,0.30
2023-02-05T22:17:39.394Z,1.02
2023-02-05T22:20:09.460Z,0.40
2023-02-05T22:22:38.726Z,0.38
2023-02-05T22:25:08.463Z,0.65
2023-02-05T22:27:37.697Z,0.50
2023-02-05T22:30:09.379Z,0.40
2023-02-05T22:32:38.590Z,0.40
2023-02-05T22:35:08.518Z,0.52
2023-02-05T22:37:37.700Z,0.47
2023-02-05T22:40:08.005Z,0.65
2023-02-05T22:42:37.116Z,0.85
2023-02-05T22:45:08.575Z,0.40
2023-02-05T22:47:37.964Z,0.40
2023-02-05T22:50:07.654Z,0.68
2023-02-05T22:52:36.806Z,0.98
2023-02-05T22:55:06.396Z,1.38
2023-02-05T22:57:35.552Z,0.50
2023-02-05T23:00:05.054Z,0.68
2023-02-05T23:02:35.605Z,0.30
2023-02-05T23:05:05.205Z,1.13
2023-02-05T23:07:34.406Z,0.73
2023-02-05T23:10:03.584Z,0.40
2023-02-05T23:12:32.779Z,0.40
2023-02-05T23:15:01.990Z,0.35
2023-02-05T23:17:31.212Z,0.25
2023-02-05T23:20:01.942Z,0.50
2023-02-05T23:22:31.102Z,0.88
2023-02-05T23:25:00.995Z,0.20
2023-02-05T23:27:30.474Z,0.40
2023-02-05T23:29:59.681Z,0.85
2023-02-05T23:32:29.016Z,0.75
2023-02-05T23:34:58.290Z,0.50
2023-02-05T23:37:28.958Z,0.30
2023-02-05T23:39:58.117Z,0.25
2023-02-05T23:42:27.326Z,0.30
2023-02-05T23:44:56.444Z,0.40
2023-02-05T23:47:25.639Z,1.15
2023-02-05T23:49:54.785Z,0.40
2023-02-05T23:52:24.114Z,0.30
2023-02-05T23:54:54.730Z,0.40
2023-02-05T23:57:23.859Z,0.35
2023-02-05T23:59:53.147Z,0.45
